createdAt,value
2019-06-07T00:02:38.641Z,10.07
2019-06-07T00:07:43.550Z,7.27
2019-06-07T00:12:49.085Z,5.13
2019-06-07T00:17:53.954Z,9.07
2019-06-07T00:22:58.864Z,6.63
2019-06-07T00:28:03.904Z,7.07
2019-06-07T00:33:10.992Z,30.53
2019-06-07T00:38:18.927Z,48.23
2019-06-07T00:43:27.901Z,21.37
2019-06-07T00:48:32.591Z,11.07
2019-06-07T00:53:36.058Z,13.77
2019-06-07T00:58:41.180Z,8.47
2019-06-07T01:03:46.203Z,7.93
2019-06-07T01:08:51.388Z,9.10
2019-06-07T01:13:56.280Z,9.00
2019-06-07T01:19:01.899Z,7.77
2019-06-07T01:24:12.310Z,7.43
2019-06-07T01:29:14.040Z,6.77
2019-06-07T01:34:18.659Z,7.00
2019-06-07T01:39:28.816Z,16.20
2019-06-07T01:44:31.206Z,10.67
2019-06-07T01:49:36.591Z,8.23
2019-06-07T01:54:56.045Z,10.20
2019-06-07T01:59:48.487Z,9.73
2019-06-07T02:04:53.234Z,9.33
2019-06-07T02:09:58.419Z,7.70
2019-06-07T02:15:03.982Z,7.20
2019-06-07T02:20:09.185Z,8.17
2019-06-07T02:25:37.042Z,8.70
2019-06-07T02:30:40.419Z,8.60
2019-06-07T02:35:38.731Z,7.47
2019-06-07T02:40:37.531Z,12.27
2019-06-07T02:45:43.261Z,4.57
2019-06-07T02:50:48.221Z,5.93
2019-06-07T02:56:35.400Z,7.37
2019-06-07T03:01:07.422Z,10.93
2019-06-07T03:06:06.006Z,5.73
2019-06-07T03:11:11.094Z,6.30
2019-06-07T03:16:19.837Z,7.70
2019-06-07T03:21:28.129Z,9.87
2019-06-07T03:26:35.752Z,5.47
2019-06-07T03:31:46.693Z,6.27
2019-06-07T03:36:46.369Z,6.13
2019-06-07T03:42:05.606Z,7.63
2019-06-07T03:46:57.539Z,8.13
2019-06-07T03:52:02.439Z,6.93
2019-06-07T03:57:07.289Z,4.17
2019-06-07T04:02:12.483Z,8.23
2019-06-07T04:07:17.391Z,9.90
2019-06-07T04:12:23.782Z,6.13
2019-06-07T04:17:31.142Z,7.00
2019-06-07T04:22:37.598Z,8.13
2019-06-07T04:27:41.790Z,5.07
2019-06-07T04:32:46.782Z,12.60
2019-06-07T04:37:51.955Z,6.63
2019-06-07T04:42:57.004Z,10.07
2019-06-07T04:48:03.323Z,6.70
2019-06-07T04:53:08.782Z,7.53
2019-06-07T04:58:13.708Z,8.50
2019-06-07T05:03:18.533Z,7.37
2019-06-07T05:08:28.528Z,6.63
2019-06-07T05:13:36.733Z,4.13
2019-06-07T05:18:41.618Z,5.33
2019-06-07T05:24:07.407Z,9.27
2019-06-07T05:28:52.550Z,5.93
2019-06-07T05:33:57.407Z,7.50
2019-06-07T05:39:02.508Z,7.13
2019-06-07T05:44:12.578Z,6.90
2019-06-07T05:49:14.247Z,10.70
2019-06-07T05:54:19.299Z,7.27
2019-06-07T05:59:24.078Z,4.97
2019-06-07T06:04:29.386Z,3.47
2019-06-07T06:09:35.331Z,9.40
2019-06-07T06:14:44.071Z,4.83
2019-06-07T06:19:52.442Z,7.57
2019-06-07T06:25:29.870Z,5.27
2019-06-07T06:30:00.982Z,6.53
2019-06-07T06:35:07.141Z,9.87
2019-06-07T06:40:13.538Z,11.17
2019-06-07T06:45:18.722Z,11.07
2019-06-07T06:50:23.635Z,14.80
2019-06-07T06:55:28.484Z,9.80
2019-06-07T07:05:49.465Z,12.93
2019-06-07T07:10:53.193Z,12.40
2019-06-07T07:15:58.656Z,15.70
2019-06-07T07:21:03.544Z,19.13
2019-06-07T07:26:08.300Z,20.90
2019-06-07T07:31:13.234Z,18.60
2019-06-07T07:36:37.428Z,16.90
2019-06-07T07:41:25.145Z,12.80
2019-06-07T07:46:30.331Z,14.60
2019-06-07T07:51:35.636Z,19.30
2019-06-07T07:56:40.527Z,12.70
2019-06-07T08:01:46.137Z,14.43
2019-06-07T08:06:54.172Z,12.50
2019-06-07T08:12:01.882Z,15.43
2019-06-07T08:17:06.152Z,14.33
2019-06-07T08:22:11.182Z,13.03
2019-06-07T08:27:25.836Z,14.90
2019-06-07T08:32:23.273Z,12.83
2019-06-07T08:38:13.477Z,12.67
2019-06-07T08:42:37.382Z,15.37
2019-06-07T08:47:41.527Z,10.40
2019-06-07T08:52:46.660Z,18.30
2019-06-07T08:57:57.250Z,19.60
2019-06-07T09:03:04.397Z,16.00
2019-06-07T09:08:28.624Z,14.80
2019-06-07T09:13:12.557Z,14.03
2019-06-07T09:18:41.064Z,13.30
2019-06-07T09:23:24.220Z,14.17
2019-06-07T09:28:29.316Z,13.57
2019-06-07T09:33:34.403Z,15.00
2019-06-07T09:38:39.380Z,17.10
2019-06-07T09:44:01.819Z,11.60
2019-06-07T09:53:58.543Z,15.37
2019-06-07T09:59:07.478Z,23.40
2019-06-07T10:04:28.137Z,14.87
2019-06-07T10:14:24.155Z,11.47
2019-06-07T10:19:29.071Z,14.10
2019-06-07T10:24:34.020Z,17.73
2019-06-07T10:29:39.071Z,17.03
2019-06-07T10:34:43.967Z,19.10
2019-06-07T10:39:49.578Z,15.80
2019-06-07T10:44:54.459Z,27.20
2019-06-07T10:49:59.520Z,22.53
2019-06-07T10:55:04.612Z,17.50
2019-06-07T11:00:11.716Z,15.67
2019-06-07T11:05:17.186Z,15.10
2019-06-07T11:10:22.860Z,16.97
2019-06-07T11:15:27.891Z,13.77
2019-06-07T11:20:33.971Z,22.90
2019-06-07T11:25:38.810Z,13.03
2019-06-07T11:30:44.052Z,14.27
2019-06-07T11:35:48.910Z,19.17
2019-06-07T11:40:54.294Z,21.40
2019-06-07T11:45:59.118Z,20.47
2019-06-07T11:51:04.353Z,15.07
2019-06-07T11:56:10.383Z,12.80
2019-06-07T12:01:17.116Z,21.33
2019-06-07T12:06:22.400Z,22.07
2019-06-07T12:11:27.786Z,16.97
2019-06-07T12:16:32.692Z,25.53
2019-06-07T12:21:37.580Z,15.93
2019-06-07T12:26:42.623Z,15.30
2019-06-07T12:31:47.927Z,20.13
2019-06-07T12:36:53.129Z,19.17
2019-06-07T12:41:58.189Z,18.17
2019-06-07T12:47:03.180Z,15.07
2019-06-07T12:52:08.371Z,21.23
2019-06-07T12:57:13.949Z,26.43
2019-06-07T13:02:21.150Z,27.63
2019-06-07T13:07:26.010Z,21.47
2019-06-07T13:12:30.887Z,20.73
2019-06-07T13:17:35.687Z,18.67
2019-06-07T13:22:40.171Z,26.37
2019-06-07T13:27:45.171Z,16.90
2019-06-07T13:32:50.051Z,13.67
2019-06-07T13:37:54.811Z,19.93
2019-06-07T13:42:59.719Z,16.33
2019-06-07T13:48:05.091Z,28.30
2019-06-07T13:53:09.852Z,18.10
2019-06-07T13:58:14.631Z,18.33
2019-06-07T14:03:22.476Z,25.90
2019-06-07T14:08:27.224Z,21.17
2019-06-07T14:13:32.455Z,33.07
2019-06-07T14:18:37.247Z,27.77
2019-06-07T14:23:49.160Z,25.37
2019-06-07T14:28:49.150Z,21.90
2019-06-07T14:33:54.179Z,23.17
2019-06-07T14:38:59.155Z,18.00
2019-06-07T14:44:04.591Z,20.47
2019-06-07T14:49:09.531Z,27.27
2019-06-07T14:54:14.437Z,13.80
2019-06-07T14:59:19.408Z,19.83
2019-06-07T15:04:24.526Z,29.70
2019-06-07T15:09:31.008Z,30.77
2019-06-07T15:14:37.517Z,26.20
2019-06-07T15:19:42.597Z,28.90
2019-06-07T15:24:47.470Z,30.57
2019-06-07T15:29:52.543Z,22.17
2019-06-07T15:34:57.809Z,22.47
2019-06-07T15:40:02.702Z,14.67
2019-06-07T15:45:08.671Z,24.20
2019-06-07T15:50:14.030Z,17.33
2019-06-07T15:55:20.678Z,23.93
2019-06-07T16:00:25.606Z,18.17
2019-06-07T16:05:31.999Z,34.30
2019-06-07T16:10:38.727Z,23.17
2019-06-07T16:15:44.448Z,21.03
2019-06-07T16:20:49.371Z,20.97
2019-06-07T16:25:54.286Z,26.63
2019-06-07T16:30:59.279Z,21.03
2019-06-07T16:36:04.446Z,24.83
2019-06-07T16:41:09.371Z,22.62
2019-06-07T16:46:14.227Z,18.40
2019-06-07T16:51:19.370Z,18.17
2019-06-07T16:56:25.030Z,13.47
2019-06-07T17:01:29.890Z,14.53
2019-06-07T17:06:34.931Z,16.27
2019-06-07T17:11:40.394Z,20.43
2019-06-07T17:16:46.150Z,16.90
2019-06-07T17:21:52.016Z,16.73
2019-06-07T17:26:57.070Z,14.27
2019-06-07T17:32:02.567Z,10.40
2019-06-07T17:37:07.482Z,14.33
2019-06-07T17:42:12.812Z,10.73
2019-06-07T17:47:17.890Z,19.27
2019-06-07T17:52:23.087Z,18.30
2019-06-07T17:57:28.043Z,12.53
2019-06-07T18:02:33.365Z,20.43
2019-06-07T18:07:38.956Z,12.53
2019-06-07T18:12:44.225Z,17.87
2019-06-07T18:17:49.179Z,22.43
2019-06-07T18:22:53.947Z,17.83
2019-06-07T18:27:59.014Z,13.83
2019-06-07T18:33:04.623Z,13.20
2019-06-07T18:38:10.860Z,18.30
2019-06-07T18:43:15.884Z,16.87
2019-06-07T18:48:21.617Z,15.80
2019-06-07T18:53:26.588Z,13.10
2019-06-07T18:58:32.305Z,15.20
2019-06-07T19:03:37.129Z,17.60
2019-06-07T19:08:42.166Z,19.65
2019-06-07T19:13:47.175Z,18.13
2019-06-07T19:18:52.291Z,16.30
2019-06-07T19:23:58.052Z,15.48
2019-06-07T19:29:02.987Z,14.45
2019-06-07T19:34:07.945Z,17.00
2019-06-07T19:39:13.163Z,12.75
2019-06-07T19:44:18.128Z,15.03
2019-06-07T19:49:23.245Z,11.83
2019-06-07T19:54:29.485Z,12.90
2019-06-07T19:59:34.404Z,10.40
2019-06-07T20:04:39.134Z,15.63
2019-06-07T20:09:44.105Z,16.10
2019-06-07T20:14:48.931Z,9.93
2019-06-07T20:19:54.008Z,13.77
2019-06-07T20:24:58.905Z,9.07
2019-06-07T20:30:04.349Z,11.80
2019-06-07T20:35:10.886Z,13.97
2019-06-07T20:40:24.375Z,14.13
2019-06-07T20:45:33.063Z,14.77
2019-06-07T20:50:29.926Z,10.60
2019-06-07T20:55:34.946Z,8.97
2019-06-07T21:00:40.205Z,18.50
2019-06-07T21:05:46.045Z,19.07
2019-06-07T21:10:51.083Z,11.57
2019-06-07T21:15:56.485Z,9.40
2019-06-07T21:21:02.344Z,12.43
2019-06-07T21:26:09.017Z,12.97
2019-06-07T21:31:14.086Z,15.90
2019-06-07T21:36:18.907Z,12.83
2019-06-07T21:41:23.837Z,21.13
2019-06-07T21:46:29.620Z,19.77
2019-06-07T21:51:34.595Z,11.57
2019-06-07T21:56:39.464Z,11.13
2019-06-07T22:01:44.605Z,16.60
2019-06-07T22:06:50.050Z,9.57
2019-06-07T22:11:55.297Z,11.70
2019-06-07T22:17:00.345Z,13.90
2019-06-07T22:22:07.151Z,10.67
2019-06-07T22:27:13.402Z,14.70
2019-06-07T22:32:19.151Z,15.40
2019-06-07T22:37:24.225Z,13.03
2019-06-07T22:42:29.131Z,12.20
2019-06-07T22:47:34.695Z,16.77
2019-06-07T22:52:39.847Z,10.97
2019-06-07T22:57:53.078Z,12.27
2019-06-07T23:02:57.989Z,17.97
2019-06-07T23:08:02.792Z,14.73
2019-06-07T23:13:09.196Z,19.77
2019-06-07T23:18:15.494Z,20.57
2019-06-07T23:23:20.665Z,19.97
2019-06-07T23:28:26.154Z,25.13
2019-06-07T23:33:31.390Z,23.57
2019-06-07T23:38:36.355Z,17.70
2019-06-07T23:43:41.145Z,15.93
2019-06-07T23:48:46.145Z,21.97
2019-06-07T23:53:51.015Z,18.87
2019-06-07T23:58:55.786Z,17.83
